sensor_id;sensor_type;location;lat;lon;timestamp;temperature;humidity
12761;DHT22;6444;49.742;6.114;2022-11-11T00:01:56;10.50;99.90
12761;DHT22;6444;49.742;6.114;2022-11-11T00:04:23;10.60;99.90
12761;DHT22;6444;49.742;6.114;2022-11-11T00:06:49;10.50;99.90
12761;DHT22;6444;49.742;6.114;2022-11-11T00:09:17;10.20;99.90
12761;DHT22;6444;49.742;6.114;2022-11-11T00:11:44;10.20;99.90
12761;DHT22;6444;49.742;6.114;2022-11-11T00:14:10;10.20;99.90
12761;DHT22;6444;49.742;6.114;2022-11-11T00:16:37;10.30;99.90
12761;DHT22;6444;49.742;6.114;2022-11-11T00:19:22;10.10;99.90
12761;DHT22;6444;49.742;6.114;2022-11-11T00:22:28;10.10;99.90
12761;DHT22;6444;49.742;6.114;2022-11-11T00:24:52;10.10;99.90
12761;DHT22;6444;49.742;6.114;2022-11-11T00:27:34;10.40;99.90
12761;DHT22;6444;49.742;6.114;2022-11-11T00:30:00;10.20;99.90
12761;DHT22;6444;49.742;6.114;2022-11-11T00:32:27;10.20;99.90
12761;DHT22;6444;49.742;6.114;2022-11-11T00:34:54;10.30;99.90
12761;DHT22;6444;49.742;6.114;2022-11-11T00:37:38;10.00;99.90
12761;DHT22;6444;49.742;6.114;2022-11-11T00:40:05;10.10;99.90
12761;DHT22;6444;49.742;6.114;2022-11-11T00:42:32;10.10;99.90
12761;DHT22;6444;49.742;6.114;2022-11-11T00:44:58;10.00;99.90
12761;DHT22;6444;49.742;6.114;2022-11-11T00:47:25;9.80;99.90
12761;DHT22;6444;49.742;6.114;2022-11-11T00:50:20;10.10;99.90
12761;DHT22;6444;49.742;6.114;2022-11-11T00:53:07;10.20;99.90
12761;DHT22;6444;49.742;6.114;2022-11-11T00:55:30;10.70;99.90
12761;DHT22;6444;49.742;6.114;2022-11-11T00:57:57;10.40;99.90
12761;DHT22;6444;49.742;6.114;2022-11-11T01:00:24;10.10;99.90
12761;DHT22;6444;49.742;6.114;2022-11-11T01:02:50;10.20;99.90
12761;DHT22;6444;49.742;6.114;2022-11-11T01:05:17;10.40;99.90
12761;DHT22;6444;49.742;6.114;2022-11-11T01:07:44;10.80;99.90
12761;DHT22;6444;49.742;6.114;2022-11-11T01:10:10;10.70;99.90
12761;DHT22;6444;49.742;6.114;2022-11-11T01:12:38;10.50;99.90
12761;DHT22;6444;49.742;6.114;2022-11-11T01:15:04;10.50;99.90
12761;DHT22;6444;49.742;6.114;2022-11-11T01:17:31;10.50;99.90
12761;DHT22;6444;49.742;6.114;2022-11-11T01:19:58;10.40;99.90
12761;DHT22;6444;49.742;6.114;2022-11-11T01:22:24;10.10;99.90
12761;DHT22;6444;49.742;6.114;2022-11-11T01:24:51;10.30;99.90
12761;DHT22;6444;49.742;6.114;2022-11-11T01:27:18;10.50;99.90
12761;DHT22;6444;49.742;6.114;2022-11-11T01:29:44;11.20;99.90
12761;DHT22;6444;49.742;6.114;2022-11-11T01:32:11;10.70;99.90
12761;DHT22;6444;49.742;6.114;2022-11-11T01:34:37;10.40;99.90
12761;DHT22;6444;49.742;6.114;2022-11-11T01:37:04;10.60;99.90
12761;DHT22;6444;49.742;6.114;2022-11-11T01:39:31;10.80;99.90
12761;DHT22;6444;49.742;6.114;2022-11-11T01:41:58;10.80;99.90
12761;DHT22;6444;49.742;6.114;2022-11-11T01:44:41;10.80;99.90
12761;DHT22;6444;49.742;6.114;2022-11-11T01:47:06;10.70;99.90
12761;DHT22;6444;49.742;6.114;2022-11-11T01:49:37;10.60;99.90
12761;DHT22;6444;49.742;6.114;2022-11-11T01:52:25;10.50;99.90
12761;DHT22;6444;49.742;6.114;2022-11-11T01:55:05;10.80;99.90
12761;DHT22;6444;49.742;6.114;2022-11-11T02:00:17;11.40;99.90
12761;DHT22;6444;49.742;6.114;2022-11-11T02:05:13;11.70;99.90
12761;DHT22;6444;49.742;6.114;2022-11-11T02:08:00;11.70;99.90
12761;DHT22;6444;49.742;6.114;2022-11-11T02:10:24;11.50;99.90
12761;DHT22;6444;49.742;6.114;2022-11-11T02:12:51;11.60;99.90
12761;DHT22;6444;49.742;6.114;2022-11-11T02:15:38;11.70;99.90
12761;DHT22;6444;49.742;6.114;2022-11-11T02:18:05;11.90;99.90
12761;DHT22;6444;49.742;6.114;2022-11-11T02:20:42;11.60;99.90
12761;DHT22;6444;49.742;6.114;2022-11-11T02:23:18;11.50;99.90
12761;DHT22;6444;49.742;6.114;2022-11-11T02:25:42;10.80;99.90
12761;DHT22;6444;49.742;6.114;2022-11-11T02:28:07;10.70;99.90
12761;DHT22;6444;49.742;6.114;2022-11-11T02:30:34;10.80;99.90
12761;DHT22;6444;49.742;6.114;2022-11-11T02:33:01;10.70;99.90
12761;DHT22;6444;49.742;6.114;2022-11-11T02:35:34;10.50;99.90
12761;DHT22;6444;49.742;6.114;2022-11-11T02:38:00;10.50;99.90
12761;DHT22;6444;49.742;6.114;2022-11-11T02:40:32;10.60;99.90
12761;DHT22;6444;49.742;6.114;2022-11-11T02:42:53;11.10;99.90
12761;DHT22;6444;49.742;6.114;2022-11-11T02:45:19;11.20;99.90
12761;DHT22;6444;49.742;6.114;2022-11-11T02:47:46;11.20;99.90
12761;DHT22;6444;49.742;6.114;2022-11-11T02:50:13;11.10;99.90
12761;DHT22;6444;49.742;6.114;2022-11-11T02:52:39;10.70;99.90
12761;DHT22;6444;49.742;6.114;2022-11-11T02:55:08;10.10;99.90
12761;DHT22;6444;49.742;6.114;2022-11-11T02:57:34;10.00;99.90
12761;DHT22;6444;49.742;6.114;2022-11-11T03:00:00;9.80;99.90
12761;DHT22;6444;49.742;6.114;2022-11-11T03:02:27;9.80;99.90
12761;DHT22;6444;49.742;6.114;2022-11-11T03:04:56;9.80;99.90
12761;DHT22;6444;49.742;6.114;2022-11-11T03:07:23;10.00;99.90
12761;DHT22;6444;49.742;6.114;2022-11-11T03:09:49;10.10;99.90
12761;DHT22;6444;49.742;6.114;2022-11-11T03:12:16;9.90;99.90
12761;DHT22;6444;49.742;6.114;2022-11-11T03:14:43;9.90;99.90
12761;DHT22;6444;49.742;6.114;2022-11-11T03:17:09;9.90;99.90
12761;DHT22;6444;49.742;6.114;2022-11-11T03:19:54;9.80;99.90
12761;DHT22;6444;49.742;6.114;2022-11-11T03:22:21;9.60;99.90
12761;DHT22;6444;49.742;6.114;2022-11-11T03:24:48;9.50;99.90
12761;DHT22;6444;49.742;6.114;2022-11-11T03:27:32;9.50;99.90
12761;DHT22;6444;49.742;6.114;2022-11-11T03:29:59;10.00;99.90
12761;DHT22;6444;49.742;6.114;2022-11-11T03:32:26;10.60;99.90
12761;DHT22;6444;49.742;6.114;2022-11-11T03:34:53;10.60;99.90
12761;DHT22;6444;49.742;6.114;2022-11-11T03:37:19;11.20;99.90
12761;DHT22;6444;49.742;6.114;2022-11-11T03:40:05;11.40;99.90
12761;DHT22;6444;49.742;6.114;2022-11-11T03:42:31;10.60;99.90
12761;DHT22;6444;49.742;6.114;2022-11-11T03:44:58;10.70;99.90
12761;DHT22;6444;49.742;6.114;2022-11-11T03:47:25;10.60;99.90
12761;DHT22;6444;49.742;6.114;2022-11-11T03:49:51;10.70;99.90
12761;DHT22;6444;49.742;6.114;2022-11-11T03:52:18;10.50;99.90
12761;DHT22;6444;49.742;6.114;2022-11-11T03:54:44;10.20;99.90
12761;DHT22;6444;49.742;6.114;2022-11-11T03:57:11;10.80;99.90
12761;DHT22;6444;49.742;6.114;2022-11-11T03:59:56;11.10;99.90
12761;DHT22;6444;49.742;6.114;2022-11-11T04:02:23;10.60;99.90
12761;DHT22;6444;49.742;6.114;2022-11-11T04:05:07;10.70;99.90
12761;DHT22;6444;49.742;6.114;2022-11-11T04:07:52;11.20;99.90
12761;DHT22;6444;49.742;6.114;2022-11-11T04:10:18;11.30;99.90
12761;DHT22;6444;49.742;6.114;2022-11-11T04:12:48;11.10;99.90
12761;DHT22;6444;49.742;6.114;2022-11-11T04:15:32;11.10;99.90
12761;DHT22;6444;49.742;6.114;2022-11-11T04:18:17;11.00;99.90
12761;DHT22;6444;49.742;6.114;2022-11-11T04:20:44;10.70;99.90
12761;DHT22;6444;49.742;6.114;2022-11-11T04:23:29;10.40;99.90
12761;DHT22;6444;49.742;6.114;2022-11-11T04:25:58;10.20;99.90
12761;DHT22;6444;49.742;6.114;2022-11-11T04:28:22;10.20;99.90
12761;DHT22;6444;49.742;6.114;2022-11-11T04:31:06;10.20;99.90
12761;DHT22;6444;49.742;6.114;2022-11-11T04:33:34;10.30;99.90
12761;DHT22;6444;49.742;6.114;2022-11-11T04:36:02;10.20;99.90
12761;DHT22;6444;49.742;6.114;2022-11-11T04:38:28;10.20;99.90
12761;DHT22;6444;49.742;6.114;2022-11-11T04:41:14;9.60;99.90
12761;DHT22;6444;49.742;6.114;2022-11-11T04:43:40;9.50;99.90
12761;DHT22;6444;49.742;6.114;2022-11-11T04:46:25;9.80;99.90
12761;DHT22;6444;49.742;6.114;2022-11-11T04:48:52;10.20;99.90
12761;DHT22;6444;49.742;6.114;2022-11-11T04:51:18;10.10;99.90
12761;DHT22;6444;49.742;6.114;2022-11-11T04:53:45;9.50;99.90
12761;DHT22;6444;49.742;6.114;2022-11-11T04:56:11;9.20;99.90
12761;DHT22;6444;49.742;6.114;2022-11-11T04:58:56;9.70;99.90
12761;DHT22;6444;49.742;6.114;2022-11-11T05:01:41;10.00;99.90
12761;DHT22;6444;49.742;6.114;2022-11-11T05:04:25;10.40;99.90
12761;DHT22;6444;49.742;6.114;2022-11-11T05:06:52;10.50;99.90
12761;DHT22;6444;49.742;6.114;2022-11-11T05:09:37;11.20;99.90
12761;DHT22;6444;49.742;6.114;2022-11-11T05:12:03;11.00;99.90
12761;DHT22;6444;49.742;6.114;2022-11-11T05:14:31;10.50;99.90
12761;DHT22;6444;49.742;6.114;2022-11-11T05:17:16;10.20;99.90
12761;DHT22;6444;49.742;6.114;2022-11-11T05:20:01;10.20;99.90
12761;DHT22;6444;49.742;6.114;2022-11-11T05:22:46;9.90;99.90
12761;DHT22;6444;49.742;6.114;2022-11-11T05:25:12;9.70;99.90
12761;DHT22;6444;49.742;6.114;2022-11-11T05:27:52;9.90;99.90
12761;DHT22;6444;49.742;6.114;2022-11-11T05:30:19;9.90;99.90
12761;DHT22;6444;49.742;6.114;2022-11-11T05:32:45;9.80;99.90
12761;DHT22;6444;49.742;6.114;2022-11-11T05:35:12;10.40;99.90
12761;DHT22;6444;49.742;6.114;2022-11-11T05:37:39;10.30;99.90
12761;DHT22;6444;49.742;6.114;2022-11-11T05:40:06;10.20;99.90
12761;DHT22;6444;49.742;6.114;2022-11-11T05:42:32;9.90;99.90
12761;DHT22;6444;49.742;6.114;2022-11-11T05:44:59;9.90;99.90
12761;DHT22;6444;49.742;6.114;2022-11-11T05:47:26;9.40;99.90
12761;DHT22;6444;49.742;6.114;2022-11-11T05:49:52;9.50;99.90
12761;DHT22;6444;49.742;6.114;2022-11-11T05:52:19;9.60;99.90
12761;DHT22;6444;49.742;6.114;2022-11-11T05:54:46;9.80;99.90
12761;DHT22;6444;49.742;6.114;2022-11-11T05:57:13;9.70;99.90
12761;DHT22;6444;49.742;6.114;2022-11-11T05:59:39;9.60;99.90
12761;DHT22;6444;49.742;6.114;2022-11-11T06:02:06;9.70;99.90
12761;DHT22;6444;49.742;6.114;2022-11-11T06:04:33;9.30;99.90
12761;DHT22;6444;49.742;6.114;2022-11-11T06:07:00;9.20;99.90
12761;DHT22;6444;49.742;6.114;2022-11-11T06:09:27;9.20;99.90
12761;DHT22;6444;49.742;6.114;2022-11-11T06:11:53;9.30;99.90
12761;DHT22;6444;49.742;6.114;2022-11-11T06:14:20;9.30;99.90
12761;DHT22;6444;49.742;6.114;2022-11-11T06:16:47;9.00;99.90
12761;DHT22;6444;49.742;6.114;2022-11-11T06:19:14;8.90;99.90
12761;DHT22;6444;49.742;6.114;2022-11-11T06:21:41;8.60;99.90
12761;DHT22;6444;49.742;6.114;2022-11-11T06:24:23;8.50;99.90
12761;DHT22;6444;49.742;6.114;2022-11-11T06:26:49;8.40;99.90
12761;DHT22;6444;49.742;6.114;2022-11-11T06:29:16;8.20;99.90
12761;DHT22;6444;49.742;6.114;2022-11-11T06:31:42;8.20;99.90
12761;DHT22;6444;49.742;6.114;2022-11-11T06:34:09;7.80;99.90
12761;DHT22;6444;49.742;6.114;2022-11-11T06:36:36;8.10;99.90
12761;DHT22;6444;49.742;6.114;2022-11-11T06:39:02;8.40;99.90
12761;DHT22;6444;49.742;6.114;2022-11-11T06:41:29;8.60;99.90
12761;DHT22;6444;49.742;6.114;2022-11-11T06:43:55;8.70;99.90
12761;DHT22;6444;49.742;6.114;2022-11-11T06:46:23;8.30;99.90
12761;DHT22;6444;49.742;6.114;2022-11-11T06:48:49;8.50;99.90
12761;DHT22;6444;49.742;6.114;2022-11-11T06:51:15;8.50;99.90
12761;DHT22;6444;49.742;6.114;2022-11-11T06:53:42;8.40;99.90
12761;DHT22;6444;49.742;6.114;2022-11-11T06:56:09;8.50;99.90
12761;DHT22;6444;49.742;6.114;2022-11-11T06:58:35;8.60;99.90
12761;DHT22;6444;49.742;6.114;2022-11-11T07:01:05;9.00;99.90
12761;DHT22;6444;49.742;6.114;2022-11-11T07:03:32;8.90;99.90
12761;DHT22;6444;49.742;6.114;2022-11-11T07:06:01;8.90;99.90
12761;DHT22;6444;49.742;6.114;2022-11-11T07:08:27;9.50;99.90
12761;DHT22;6444;49.742;6.114;2022-11-11T07:10:54;9.40;99.90
12761;DHT22;6444;49.742;6.114;2022-11-11T07:13:21;9.60;99.90
12761;DHT22;6444;49.742;6.114;2022-11-11T07:15:47;9.60;99.90
12761;DHT22;6444;49.742;6.114;2022-11-11T07:18:14;9.40;99.90
12761;DHT22;6444;49.742;6.114;2022-11-11T07:20:40;9.20;99.90
12761;DHT22;6444;49.742;6.114;2022-11-11T07:23:07;9.20;99.90
12761;DHT22;6444;49.742;6.114;2022-11-11T07:25:34;9.80;99.90
12761;DHT22;6444;49.742;6.114;2022-11-11T07:28:01;9.80;99.90
12761;DHT22;6444;49.742;6.114;2022-11-11T07:30:28;9.40;99.90
12761;DHT22;6444;49.742;6.114;2022-11-11T07:32:54;9.30;99.90
12761;DHT22;6444;49.742;6.114;2022-11-11T07:35:22;9.10;99.90
12761;DHT22;6444;49.742;6.114;2022-11-11T07:37:48;9.10;99.90
12761;DHT22;6444;49.742;6.114;2022-11-11T07:40:16;8.90;99.90
12761;DHT22;6444;49.742;6.114;2022-11-11T07:42:42;8.40;99.90
12761;DHT22;6444;49.742;6.114;2022-11-11T07:45:09;8.80;99.90
12761;DHT22;6444;49.742;6.114;2022-11-11T07:47:35;8.90;99.90
12761;DHT22;6444;49.742;6.114;2022-11-11T07:50:05;8.70;99.90
12761;DHT22;6444;49.742;6.114;2022-11-11T07:52:32;9.10;99.90
12761;DHT22;6444;49.742;6.114;2022-11-11T07:54:58;9.40;99.90
12761;DHT22;6444;49.742;6.114;2022-11-11T07:57:25;9.70;99.90
12761;DHT22;6444;49.742;6.114;2022-11-11T07:59:54;9.50;99.90
12761;DHT22;6444;49.742;6.114;2022-11-11T08:02:21;9.20;99.90
12761;DHT22;6444;49.742;6.114;2022-11-11T08:04:48;9.00;99.90
12761;DHT22;6444;49.742;6.114;2022-11-11T08:07:14;9.20;99.90
12761;DHT22;6444;49.742;6.114;2022-11-11T08:09:42;10.20;99.90
12761;DHT22;6444;49.742;6.114;2022-11-11T08:12:09;10.00;99.90
12761;DHT22;6444;49.742;6.114;2022-11-11T08:14:55;10.00;99.90
12761;DHT22;6444;49.742;6.114;2022-11-11T08:17:22;10.10;99.90
12761;DHT22;6444;49.742;6.114;2022-11-11T08:19:49;10.00;99.90
12761;DHT22;6444;49.742;6.114;2022-11-11T08:22:15;10.20;99.90
12761;DHT22;6444;49.742;6.114;2022-11-11T08:24:42;9.90;99.90
12761;DHT22;6444;49.742;6.114;2022-11-11T08:27:10;10.00;99.90
12761;DHT22;6444;49.742;6.114;2022-11-11T08:29:37;10.30;99.90
12761;DHT22;6444;49.742;6.114;2022-11-11T08:32:04;10.20;99.90
12761;DHT22;6444;49.742;6.114;2022-11-11T08:34:30;10.40;99.90
12761;DHT22;6444;49.742;6.114;2022-11-11T08:36:57;9.80;99.90
12761;DHT22;6444;49.742;6.114;2022-11-11T08:39:23;10.00;99.90
12761;DHT22;6444;49.742;6.114;2022-11-11T08:41:50;10.20;99.90
12761;DHT22;6444;49.742;6.114;2022-11-11T08:44:17;9.90;99.90
12761;DHT22;6444;49.742;6.114;2022-11-11T08:46:44;9.90;99.90
12761;DHT22;6444;49.742;6.114;2022-11-11T08:49:11;10.00;99.90
12761;DHT22;6444;49.742;6.114;2022-11-11T08:51:37;10.10;99.90
12761;DHT22;6444;49.742;6.114;2022-11-11T08:54:04;10.00;99.90
12761;DHT22;6444;49.742;6.114;2022-11-11T08:56:31;9.30;99.90
12761;DHT22;6444;49.742;6.114;2022-11-11T08:58:59;9.10;99.90
12761;DHT22;6444;49.742;6.114;2022-11-11T09:01:25;9.00;99.90
12761;DHT22;6444;49.742;6.114;2022-11-11T09:03:52;9.10;99.90
12761;DHT22;6444;49.742;6.114;2022-11-11T09:06:22;9.50;99.90
12761;DHT22;6444;49.742;6.114;2022-11-11T09:08:46;9.40;99.90
12761;DHT22;6444;49.742;6.114;2022-11-11T09:11:13;10.20;99.90
12761;DHT22;6444;49.742;6.114;2022-11-11T09:13:39;10.70;99.90
12761;DHT22;6444;49.742;6.114;2022-11-11T09:16:07;10.00;99.90
12761;DHT22;6444;49.742;6.114;2022-11-11T09:18:34;10.00;99.90
12761;DHT22;6444;49.742;6.114;2022-11-11T09:21:00;10.10;99.90
12761;DHT22;6444;49.742;6.114;2022-11-11T09:23:27;10.10;99.90
12761;DHT22;6444;49.742;6.114;2022-11-11T09:25:53;10.10;99.90
12761;DHT22;6444;49.742;6.114;2022-11-11T09:28:20;10.00;99.90
12761;DHT22;6444;49.742;6.114;2022-11-11T09:30:47;10.70;99.90
12761;DHT22;6444;49.742;6.114;2022-11-11T09:33:14;10.70;99.90
12761;DHT22;6444;49.742;6.114;2022-11-11T09:35:41;11.20;99.90
12761;DHT22;6444;49.742;6.114;2022-11-11T09:38:07;11.70;99.90
12761;DHT22;6444;49.742;6.114;2022-11-11T09:43:23;10.70;99.90
12761;DHT22;6444;49.742;6.114;2022-11-11T09:46:03;10.10;99.90
12761;DHT22;6444;49.742;6.114;2022-11-11T09:48:49;10.20;99.90
12761;DHT22;6444;49.742;6.114;2022-11-11T09:51:15;10.50;99.90
12761;DHT22;6444;49.742;6.114;2022-11-11T09:53:39;10.40;99.90
12761;DHT22;6444;49.742;6.114;2022-11-11T09:56:14;10.50;99.90
12761;DHT22;6444;49.742;6.114;2022-11-11T09:58:45;10.40;99.90
12761;DHT22;6444;49.742;6.114;2022-11-11T10:01:13;10.30;99.90
12761;DHT22;6444;49.742;6.114;2022-11-11T10:03:40;10.20;99.90
12761;DHT22;6444;49.742;6.114;2022-11-11T10:06:08;10.00;99.90
12761;DHT22;6444;49.742;6.114;2022-11-11T10:08:38;10.00;99.90
12761;DHT22;6444;49.742;6.114;2022-11-11T10:11:00;10.10;99.90
12761;DHT22;6444;49.742;6.114;2022-11-11T10:13:29;10.40;99.90
12761;DHT22;6444;49.742;6.114;2022-11-11T10:21:13;10.70;99.90
12761;DHT22;6444;49.742;6.114;2022-11-11T10:23:37;10.60;99.90
12761;DHT22;6444;49.742;6.114;2022-11-11T10:26:20;10.70;99.90
12761;DHT22;6444;49.742;6.114;2022-11-11T10:28:46;10.70;99.90
12761;DHT22;6444;49.742;6.114;2022-11-11T10:31:14;10.90;99.90
12761;DHT22;6444;49.742;6.114;2022-11-11T10:36:12;11.10;99.90
12761;DHT22;6444;49.742;6.114;2022-11-11T10:38:47;10.50;99.90
12761;DHT22;6444;49.742;6.114;2022-11-11T10:41:15;10.20;99.90
12761;DHT22;6444;49.742;6.114;2022-11-11T10:43:41;10.10;99.90
12761;DHT22;6444;49.742;6.114;2022-11-11T10:48:58;10.30;99.90
12761;DHT22;6444;49.742;6.114;2022-11-11T10:51:29;10.60;99.90
12761;DHT22;6444;49.742;6.114;2022-11-11T10:56:44;10.00;99.90
12761;DHT22;6444;49.742;6.114;2022-11-11T10:59:18;10.10;99.90
12761;DHT22;6444;49.742;6.114;2022-11-11T11:01:42;10.00;99.90
12761;DHT22;6444;49.742;6.114;2022-11-11T11:04:13;10.40;99.90
12761;DHT22;6444;49.742;6.114;2022-11-11T11:06:37;10.30;99.90
12761;DHT22;6444;49.742;6.114;2022-11-11T11:09:20;10.70;99.90
12761;DHT22;6444;49.742;6.114;2022-11-11T11:11:55;10.80;99.90
12761;DHT22;6444;49.742;6.114;2022-11-11T11:14:29;10.90;99.90
12761;DHT22;6444;49.742;6.114;2022-11-11T11:16:57;10.70;99.90
12761;DHT22;6444;49.742;6.114;2022-11-11T11:19:23;10.70;99.90
12761;DHT22;6444;49.742;6.114;2022-11-11T11:21:56;11.30;99.90
12761;DHT22;6444;49.742;6.114;2022-11-11T11:24:23;11.90;99.90
12761;DHT22;6444;49.742;6.114;2022-11-11T11:26:49;12.20;99.90
12761;DHT22;6444;49.742;6.114;2022-11-11T11:29:20;12.10;99.90
12761;DHT22;6444;49.742;6.114;2022-11-11T11:31:41;12.60;99.90
12761;DHT22;6444;49.742;6.114;2022-11-11T11:34:08;12.40;99.90
12761;DHT22;6444;49.742;6.114;2022-11-11T11:36:35;12.20;99.90
12761;DHT22;6444;49.742;6.114;2022-11-11T11:39:02;12.10;99.90
12761;DHT22;6444;49.742;6.114;2022-11-11T11:41:44;12.00;99.90
12761;DHT22;6444;49.742;6.114;2022-11-11T11:44:30;12.30;99.90
12761;DHT22;6444;49.742;6.114;2022-11-11T11:47:02;12.30;99.90
12761;DHT22;6444;49.742;6.114;2022-11-11T11:52:13;12.30;99.90
12761;DHT22;6444;49.742;6.114;2022-11-11T11:54:52;12.70;99.90
12761;DHT22;6444;49.742;6.114;2022-11-11T11:57:23;12.80;99.90
12761;DHT22;6444;49.742;6.114;2022-11-11T11:59:49;12.80;99.90
12761;DHT22;6444;49.742;6.114;2022-11-11T12:02:35;12.70;99.90
12761;DHT22;6444;49.742;6.114;2022-11-11T12:13:31;13.20;99.90
12761;DHT22;6444;49.742;6.114;2022-11-11T12:19:03;13.00;99.90
12761;DHT22;6444;49.742;6.114;2022-11-11T12:21:28;12.50;99.90
12761;DHT22;6444;49.742;6.114;2022-11-11T12:24:21;12.40;99.90
12761;DHT22;6444;49.742;6.114;2022-11-11T12:32:15;12.60;99.90
12761;DHT22;6444;49.742;6.114;2022-11-11T12:34:42;12.10;99.90
12761;DHT22;6444;49.742;6.114;2022-11-11T12:39:52;12.10;99.90
12761;DHT22;6444;49.742;6.114;2022-11-11T12:42:34;12.10;99.90
12761;DHT22;6444;49.742;6.114;2022-11-11T12:44:59;11.90;99.90
12761;DHT22;6444;49.742;6.114;2022-11-11T12:47:31;12.10;99.90
12761;DHT22;6444;49.742;6.114;2022-11-11T12:57:58;12.00;99.90
12761;DHT22;6444;49.742;6.114;2022-11-11T13:00:22;11.90;99.90
12761;DHT22;6444;49.742;6.114;2022-11-11T13:03:13;11.70;99.90
12761;DHT22;6444;49.742;6.114;2022-11-11T13:05:58;11.80;99.90
12761;DHT22;6444;49.742;6.114;2022-11-11T13:13:35;11.70;99.90
12761;DHT22;6444;49.742;6.114;2022-11-11T13:15:59;11.60;99.90
12761;DHT22;6444;49.742;6.114;2022-11-11T13:18:44;11.60;99.90
12761;DHT22;6444;49.742;6.114;2022-11-11T13:21:10;11.70;99.90
12761;DHT22;6444;49.742;6.114;2022-11-11T13:23:35;11.70;99.90
12761;DHT22;6444;49.742;6.114;2022-11-11T13:26:03;11.80;99.90
12761;DHT22;6444;49.742;6.114;2022-11-11T13:28:38;11.60;99.90
12761;DHT22;6444;49.742;6.114;2022-11-11T13:31:28;11.80;99.90
12761;DHT22;6444;49.742;6.114;2022-11-11T13:33:50;11.80;99.90
12761;DHT22;6444;49.742;6.114;2022-11-11T13:36:20;12.10;99.90
12761;DHT22;6444;49.742;6.114;2022-11-11T13:38:59;12.40;99.90
12761;DHT22;6444;49.742;6.114;2022-11-11T13:41:31;12.60;99.90
12761;DHT22;6444;49.742;6.114;2022-11-11T13:43:58;13.00;99.90
12761;DHT22;6444;49.742;6.114;2022-11-11T13:46:34;13.00;99.90
12761;DHT22;6444;49.742;6.114;2022-11-11T13:49:01;13.30;99.90
12761;DHT22;6444;49.742;6.114;2022-11-11T13:51:39;13.30;99.90
12761;DHT22;6444;49.742;6.114;2022-11-11T13:54:06;13.20;99.90
12761;DHT22;6444;49.742;6.114;2022-11-11T13:56:36;12.80;99.90
12761;DHT22;6444;49.742;6.114;2022-11-11T13:59:01;12.30;99.90
12761;DHT22;6444;49.742;6.114;2022-11-11T14:01:34;11.90;99.90
12761;DHT22;6444;49.742;6.114;2022-11-11T14:04:01;12.00;99.90
12761;DHT22;6444;49.742;6.114;2022-11-11T14:08:54;11.80;99.90
12761;DHT22;6444;49.742;6.114;2022-11-11T14:13:50;12.80;99.90
12761;DHT22;6444;49.742;6.114;2022-11-11T14:21:52;12.30;99.90
12761;DHT22;6444;49.742;6.114;2022-11-11T14:24:41;11.00;99.90
12761;DHT22;6444;49.742;6.114;2022-11-11T14:29:38;10.60;99.90
12761;DHT22;6444;49.742;6.114;2022-11-11T14:40:10;11.80;99.90
12761;DHT22;6444;49.742;6.114;2022-11-11T14:47:51;11.90;99.90
12761;DHT22;6444;49.742;6.114;2022-11-11T14:53:11;11.50;99.90
12761;DHT22;6444;49.742;6.114;2022-11-11T14:55:31;11.50;99.90
12761;DHT22;6444;49.742;6.114;2022-11-11T15:00:43;11.40;99.90
12761;DHT22;6444;49.742;6.114;2022-11-11T15:03:10;11.70;99.90
12761;DHT22;6444;49.742;6.114;2022-11-11T15:05:57;11.20;99.90
12761;DHT22;6444;49.742;6.114;2022-11-11T15:08:21;11.00;99.90
12761;DHT22;6444;49.742;6.114;2022-11-11T15:11:18;11.20;99.90
12761;DHT22;6444;49.742;6.114;2022-11-11T15:30:17;11.30;99.90
12761;DHT22;6444;49.742;6.114;2022-11-11T15:35:55;11.30;99.90
12761;DHT22;6444;49.742;6.114;2022-11-11T15:38:16;10.90;99.90
12761;DHT22;6444;49.742;6.114;2022-11-11T15:40:45;10.60;99.90
12761;DHT22;6444;49.742;6.114;2022-11-11T15:43:18;10.60;99.90
12761;DHT22;6444;49.742;6.114;2022-11-11T15:45:43;10.60;99.90
12761;DHT22;6444;49.742;6.114;2022-11-11T15:48:18;10.50;99.90
12761;DHT22;6444;49.742;6.114;2022-11-11T15:50:41;10.50;99.90
12761;DHT22;6444;49.742;6.114;2022-11-11T15:53:08;10.50;99.90
12761;DHT22;6444;49.742;6.114;2022-11-11T15:55:35;10.60;99.90
12761;DHT22;6444;49.742;6.114;2022-11-11T15:58:15;10.70;99.90
12761;DHT22;6444;49.742;6.114;2022-11-11T16:00:38;10.70;99.90
12761;DHT22;6444;49.742;6.114;2022-11-11T16:03:04;10.70;99.90
12761;DHT22;6444;49.742;6.114;2022-11-11T16:05:31;10.60;99.90
12761;DHT22;6444;49.742;6.114;2022-11-11T16:08:02;10.40;99.90
12761;DHT22;6444;49.742;6.114;2022-11-11T16:10:29;9.90;99.90
12761;DHT22;6444;49.742;6.114;2022-11-11T16:13:05;9.90;99.90
12761;DHT22;6444;49.742;6.114;2022-11-11T16:15:42;10.10;99.90
12761;DHT22;6444;49.742;6.114;2022-11-11T16:18:17;9.90;99.90
12761;DHT22;6444;49.742;6.114;2022-11-11T16:21:44;9.70;99.90
12761;DHT22;6444;49.742;6.114;2022-11-11T16:23:22;9.50;99.90
12761;DHT22;6444;49.742;6.114;2022-11-11T16:25:48;9.50;99.90
12761;DHT22;6444;49.742;6.114;2022-11-11T16:28:15;9.30;99.90
12761;DHT22;6444;49.742;6.114;2022-11-11T16:30:42;9.30;99.90
12761;DHT22;6444;49.742;6.114;2022-11-11T16:35:51;9.40;99.90
12761;DHT22;6444;49.742;6.114;2022-11-11T16:38:30;9.20;99.90
12761;DHT22;6444;49.742;6.114;2022-11-11T16:40:56;9.10;99.90
12761;DHT22;6444;49.742;6.114;2022-11-11T16:43:27;9.30;99.90
12761;DHT22;6444;49.742;6.114;2022-11-11T16:46:04;9.10;99.90
12761;DHT22;6444;49.742;6.114;2022-11-11T16:51:01;9.00;99.90
12761;DHT22;6444;49.742;6.114;2022-11-11T16:53:28;9.00;99.90
12761;DHT22;6444;49.742;6.114;2022-11-11T16:55:53;9.20;99.90
12761;DHT22;6444;49.742;6.114;2022-11-11T16:58:20;9.10;99.90
12761;DHT22;6444;49.742;6.114;2022-11-11T17:00:47;9.40;99.90
12761;DHT22;6444;49.742;6.114;2022-11-11T17:03:14;9.40;99.90
12761;DHT22;6444;49.742;6.114;2022-11-11T17:05:57;9.50;99.90
12761;DHT22;6444;49.742;6.114;2022-11-11T17:08:35;9.50;99.90
12761;DHT22;6444;49.742;6.114;2022-11-11T17:11:02;9.60;99.90
12761;DHT22;6444;49.742;6.114;2022-11-11T17:13:27;9.50;99.90
12761;DHT22;6444;49.742;6.114;2022-11-11T17:15:55;9.90;99.90
12761;DHT22;6444;49.742;6.114;2022-11-11T17:18:21;9.80;99.90
12761;DHT22;6444;49.742;6.114;2022-11-11T17:20:51;10.00;99.90
12761;DHT22;6444;49.742;6.114;2022-11-11T17:23:18;10.00;99.90
12761;DHT22;6444;49.742;6.114;2022-11-11T17:25:44;9.90;99.90
12761;DHT22;6444;49.742;6.114;2022-11-11T17:28:12;9.20;99.90
12761;DHT22;6444;49.742;6.114;2022-11-11T17:30:38;9.20;99.90
12761;DHT22;6444;49.742;6.114;2022-11-11T17:33:05;9.40;99.90
12761;DHT22;6444;49.742;6.114;2022-11-11T17:35:32;9.60;99.90
12761;DHT22;6444;49.742;6.114;2022-11-11T17:37:59;9.00;99.90
12761;DHT22;6444;49.742;6.114;2022-11-11T17:40:26;9.00;99.90
12761;DHT22;6444;49.742;6.114;2022-11-11T17:42:52;9.10;99.90
12761;DHT22;6444;49.742;6.114;2022-11-11T17:45:19;9.40;99.90
12761;DHT22;6444;49.742;6.114;2022-11-11T17:47:46;10.00;99.90
12761;DHT22;6444;49.742;6.114;2022-11-11T17:50:13;10.00;99.90
12761;DHT22;6444;49.742;6.114;2022-11-11T17:52:40;10.10;99.90
12761;DHT22;6444;49.742;6.114;2022-11-11T17:55:06;10.30;99.90
12761;DHT22;6444;49.742;6.114;2022-11-11T17:57:33;10.70;99.90
12761;DHT22;6444;49.742;6.114;2022-11-11T18:00:00;10.60;99.90
12761;DHT22;6444;49.742;6.114;2022-11-11T18:02:26;10.10;99.90